KBPT/BPT METAR and TAF weather

Enter ICAO airport designator
Station Type Date Time Source
KBPT METAR 2019/06/20 07:30 UTC NOAA

KBPT 200730Z AUTO 31006KT 10SM BKN019 BKN035 28/26 A2990 RMK AO2 LTG DSNT W T02830256


Station Type Date Time Source
KBPT Decoded METAR 2019/06/20 07:30 UTC NOAA

SOUTHEAST TEXAS RGNL AIRPORT, TX, United States (KBPT) 29-95N 094-08W 5M
Jun 20, 2019 - 03:30 AM EDT / 2019.06.20 0730 UTC
Wind: from the NW (310 degrees) at 7 MPH (6 KT):0
Visibility: 10 mile(s):0
Sky conditions: mostly cloudy
Weather: Lightning observed
Temperature: 82.9 F (28.3 C)
Dew Point: 78.1 F (25.6 C)
Relative Humidity: 85%
Pressure (altimeter): 29.9 in. Hg (1012 hPa)
ob: KBPT 200730Z AUTO 31006KT 10SM BKN019 BKN035 28/26 A2990 RMK AO2 LTG DSNT W T02830256
cycle: 7

Station Type Date Time Source
KBPT TAF 2019/06/20 06:22 UTC NOAA

TAF KBPT 200520Z 2006/2106 18008KT P6SM BKN020
FM200900 19007KT P6SM VCTS BKN020CB
FM201200 19007KT P6SM BKN035
FM201500 20011KT P6SM SCT035
FM202000 21013G19KT P6SM SCT050
FM210100 18007KT P6SM SKC

Example: see airport list